Ramón Villeda Morales International Airport
MHLM : now visible

Aeroporto :











RITROVATECI SU...

 
LOGIN :

Iscrizione | Disclaimer

   EN    FR    IT 

 









Sommario :    VFR   VFR Marginale   IFR   IFR Intensivo   IFR Molto Intensivo
Visibilità : 
Base nubi : 
>= 8 km
>= 3000ft
5 / 8 km
1000 / 3000 ft
1500m / 5 km
500 / 1000 ft
800 / 1500m
200 / 500 ft
< 800m
< 200 ft
Simboli :   Temporali  Nebbia  Neve Forte  Precipitazioni Forti  Vento > 20 kt






- Altitudine del aeroporto : 91 ft
- Codice IATA : SAP


MHLM - Ramón Villeda Morales International

ULTIMO METAR :
  • 201000Z VRB02KT 9999 BKN018 25/24 Q1014 A2995 NOSIG

METARs OBSOLETI :
  • 200900Z 35004KT 9999 BKN020 SCT070 25/24 Q1014 A2995 NOSIG
  • 200800Z 35004KT 9999 BKN020 SCT070 25/24 Q1014 A2995 NOSIG

TAF TAF MHLM
Valido dal 20 a 06 ore il 21 a 06 ore UTC


200430Z 2006/2106 00000KT 7000 VCSH SCT026 BKN080 TX33/2021Z TN23/2012Z
BECMG 2013/2015 20004KT 9999 NSW
BECMG 2015/2017 02014KT SCT030
BECMG 2102/2104 23004KT FEW025 BKN080



MetMap, La meteo Aeronautica in un colpo d'occhio ! - Copyright ORBIFLY Dicembre 2007 - Disclaimer

ORBIFLY MET'MAP TEAM :

Programmazione e sviluppo : Alexandra Zaïnal
Concezione : Baudouin d'Aumeries
Aiuto per la programmazione : Marc-Olivier Méhu
Supporto tecnico e logistico : Manuel Goepfert
Aiuto per la traduzione : Arnaldo La Scala

Contatto : metmap@orbifly.com




FONTI E CREDITI :

   NOAA       Earth
Advisory